createdAt,value
2019-03-16T00:01:37.890Z,99641.77
2019-03-16T00:04:03.704Z,99640.29
2019-03-16T00:06:29.493Z,99640.29
2019-03-16T00:08:55.320Z,99647.41
2019-03-16T00:11:21.111Z,99643.17
2019-03-16T00:13:46.912Z,99656.45
2019-03-16T00:16:12.695Z,99652.75
2019-03-16T00:18:38.484Z,99666.47
2019-03-16T00:21:04.275Z,99664.02
2019-03-16T00:23:30.076Z,99679.13
2019-03-16T00:25:55.859Z,99676.65
2019-03-16T00:28:21.666Z,99680.66
2019-03-16T00:30:47.440Z,99683.52
2019-03-16T00:33:13.242Z,99685.02
2019-03-16T00:35:39.020Z,99694.38
2019-03-16T00:38:04.800Z,99695.52
2019-03-16T00:40:30.608Z,99697.77
2019-03-16T00:42:56.395Z,99711.16
2019-03-16T00:45:22.189Z,99722.95
2019-03-16T00:47:47.973Z,99709.88
2019-03-16T00:50:13.913Z,99729.15
2019-03-16T00:52:39.756Z,99729.38
2019-03-16T00:55:06.857Z,99717.42
2019-03-16T00:57:32.780Z,99712.93
2019-03-16T00:59:58.581Z,99725.63
2019-03-16T01:02:27.248Z,99722.83
2019-03-16T01:04:52.055Z,99723.47
2019-03-16T01:07:17.832Z,99727.61
2019-03-16T01:09:43.901Z,99739.22
2019-03-16T01:12:09.690Z,99729.73
2019-03-16T01:14:35.563Z,99733.02
2019-03-16T01:17:01.339Z,99733.92
2019-03-16T01:19:27.230Z,99737.62
2019-03-16T01:21:53.008Z,99752.23
2019-03-16T01:24:18.832Z,99744.75
2019-03-16T01:26:44.602Z,99753.43
2019-03-16T01:29:10.391Z,99765.16
2019-03-16T01:31:36.168Z,99763.77
2019-03-16T01:34:01.966Z,99766.72
2019-03-16T01:36:27.746Z,99763.45
2019-03-16T01:38:53.536Z,99771.80
2019-03-16T01:41:19.326Z,99763.77
2019-03-16T01:43:45.103Z,99770.78
2019-03-16T01:46:10.899Z,99765.42
2019-03-16T01:48:36.674Z,99769.66
2019-03-16T01:51:02.475Z,99766.18
2019-03-16T01:53:28.251Z,99773.72
2019-03-16T01:55:54.050Z,99777.16
2019-03-16T01:58:19.830Z,99788.20
2019-03-16T02:00:45.604Z,99789.28
2019-03-16T02:03:11.398Z,99788.58
2019-03-16T02:05:37.196Z,99782.47
2019-03-16T02:08:02.971Z,99789.40
2019-03-16T02:10:28.777Z,99786.98
2019-03-16T02:12:54.553Z,99785.38
2019-03-16T02:15:20.344Z,99792.28
2019-03-16T02:17:46.121Z,99797.06
2019-03-16T02:20:11.929Z,99795.08
2019-03-16T02:22:37.708Z,99791.18
2019-03-16T02:25:04.596Z,99801.58
2019-03-16T02:27:30.372Z,99796.86
2019-03-16T02:29:56.167Z,99807.95
2019-03-16T02:32:21.937Z,99814.28
2019-03-16T02:34:47.758Z,99813.05
2019-03-16T02:37:13.533Z,99816.58
2019-03-16T02:39:39.318Z,99650.22
2019-03-16T02:42:05.107Z,99824.56
2019-03-16T02:44:30.888Z,99821.83
2019-03-16T02:46:56.678Z,99834.14
2019-03-16T02:49:22.458Z,99841.22
2019-03-16T02:51:48.239Z,99838.09
2019-03-16T02:54:14.023Z,99831.56
2019-03-16T02:56:39.815Z,99843.75
2019-03-16T02:59:05.595Z,99845.61
2019-03-16T03:01:31.375Z,99855.04
2019-03-16T03:03:57.151Z,99856.58
2019-03-16T03:06:22.950Z,99857.28
2019-03-16T03:08:48.726Z,99858.38
2019-03-16T03:11:14.537Z,99867.50
2019-03-16T03:13:40.318Z,99867.17
2019-03-16T03:16:06.110Z,99872.86
2019-03-16T03:18:31.889Z,99878.83
2019-03-16T03:20:57.684Z,99875.78
2019-03-16T03:23:23.473Z,99884.91
2019-03-16T03:25:49.240Z,99880.46
2019-03-16T03:28:15.018Z,99890.09
2019-03-16T03:30:40.822Z,99890.09
2019-03-16T03:33:06.611Z,99889.56
2019-03-16T03:35:32.381Z,99889.30
2019-03-16T03:37:58.182Z,99894.36
2019-03-16T03:40:23.964Z,99883.49
2019-03-16T03:42:49.781Z,99885.77
2019-03-16T03:45:15.559Z,99885.77
2019-03-16T03:47:41.344Z,99891.20
2019-03-16T03:50:09.629Z,99879.55
2019-03-16T03:52:35.420Z,99898.03
2019-03-16T03:55:01.508Z,99902.37
2019-03-16T03:57:27.296Z,99903.06
2019-03-16T03:59:53.071Z,99896.17
2019-03-16T04:02:18.868Z,99893.77
2019-03-16T04:04:44.751Z,99894.98
2019-03-16T04:07:10.527Z,99904.61
2019-03-16T04:09:36.330Z,99912.16
2019-03-16T04:12:02.125Z,99915.00
2019-03-16T04:14:27.897Z,99917.92
2019-03-16T04:16:53.694Z,99919.91
2019-03-16T04:19:19.479Z,99919.83
2019-03-16T04:21:45.268Z,99924.54
2019-03-16T04:24:11.062Z,99918.48
2019-03-16T04:26:36.849Z,99924.37
2019-03-16T04:29:02.625Z,99920.36
2019-03-16T04:31:28.421Z,99920.06
2019-03-16T04:33:54.202Z,99932.97
2019-03-16T04:36:20.011Z,99927.91
2019-03-16T04:38:45.795Z,99927.91
2019-03-16T04:41:11.578Z,99938.94
2019-03-16T04:43:37.372Z,99938.70
2019-03-16T04:46:03.153Z,99935.73
2019-03-16T04:48:28.944Z,99936.43
2019-03-16T04:50:54.755Z,99943.33
2019-03-16T04:53:20.508Z,99947.91
2019-03-16T04:55:46.285Z,99952.20
2019-03-16T04:58:12.072Z,99955.73
2019-03-16T05:00:37.854Z,99957.36
2019-03-16T05:03:03.656Z,99958.70
2019-03-16T05:05:29.428Z,99954.88
2019-03-16T05:07:55.222Z,99949.24
2019-03-16T05:10:21.014Z,99953.45
2019-03-16T05:12:46.810Z,99959.59
2019-03-16T05:15:12.789Z,99957.64
2019-03-16T05:17:38.590Z,99957.31
2019-03-16T05:20:07.789Z,99967.86
2019-03-16T05:22:33.633Z,99966.69
2019-03-16T05:24:59.417Z,99978.33
2019-03-16T05:27:25.193Z,99975.08
2019-03-16T05:29:50.981Z,99981.09
2019-03-16T05:32:16.800Z,99977.23
2019-03-16T05:34:55.660Z,99979.75
2019-03-16T05:37:10.217Z,99983.96
2019-03-16T05:39:36.013Z,99983.96
2019-03-16T05:42:05.020Z,99987.78
2019-03-16T05:44:29.488Z,99991.53
2019-03-16T05:46:55.266Z,99988.66
2019-03-16T05:49:21.054Z,99997.16
2019-03-16T05:51:46.834Z,99998.33
2019-03-16T05:54:12.630Z,99993.46
2019-03-16T05:56:38.413Z,99999.14
2019-03-16T05:59:04.204Z,99994.11
2019-03-16T06:01:29.984Z,99989.12
2019-03-16T06:03:55.792Z,99995.13
2019-03-16T06:06:21.567Z,99988.47
2019-03-16T06:08:47.357Z,99998.45
2019-03-16T06:11:13.144Z,99999.59
2019-03-16T06:13:39.035Z,99998.22
2019-03-16T06:16:04.802Z,99996.66
2019-03-16T06:18:30.577Z,100000.47
2019-03-16T06:20:56.367Z,99998.97
2019-03-16T06:23:23.446Z,100008.11
2019-03-16T06:25:49.341Z,100005.63
2019-03-16T06:28:15.111Z,100004.86
2019-03-16T06:30:40.906Z,100006.33
2019-03-16T06:33:06.694Z,100005.52
2019-03-16T06:35:32.487Z,100011.28
2019-03-16T06:37:58.270Z,100008.08
2019-03-16T06:40:24.060Z,100002.69
2019-03-16T06:42:49.832Z,100009.18
2019-03-16T06:45:15.625Z,100013.77
2019-03-16T06:47:41.402Z,100017.59
2019-03-16T06:50:11.859Z,100012.67
2019-03-16T06:52:37.644Z,100017.80
2019-03-16T06:55:05.041Z,100022.73
2019-03-16T06:57:31.634Z,100026.76
2019-03-16T06:59:57.427Z,100028.10
2019-03-16T07:02:23.211Z,100028.23
2019-03-16T07:04:48.990Z,100034.02
2019-03-16T07:07:14.783Z,100037.09
2019-03-16T07:09:40.563Z,100039.63
2019-03-16T07:12:06.362Z,100046.08
2019-03-16T07:14:32.136Z,100041.20
2019-03-16T07:17:02.289Z,100040.55
2019-03-16T07:19:25.609Z,100041.24
2019-03-16T07:21:51.395Z,100042.13
2019-03-16T07:24:17.168Z,100040.58
2019-03-16T07:26:42.955Z,100042.53
2019-03-16T07:29:08.739Z,100032.71
2019-03-16T07:31:34.567Z,100041.84
2019-03-16T07:34:00.329Z,100041.84
2019-03-16T07:36:26.115Z,100048.88
2019-03-16T07:38:51.907Z,100049.95
2019-03-16T07:41:17.698Z,100045.82
2019-03-16T07:43:43.471Z,100044.22
2019-03-16T07:46:09.260Z,100045.36
2019-03-16T07:48:35.034Z,100041.91
2019-03-16T07:51:00.818Z,100040.75
2019-03-16T07:53:26.600Z,100032.96
2019-03-16T07:55:52.402Z,100031.42
2019-03-16T07:58:18.207Z,100021.06
2019-03-16T08:00:43.974Z,100027.52
2019-03-16T08:03:09.818Z,100017.47
2019-03-16T08:05:35.543Z,100020.73
2019-03-16T08:08:01.337Z,100018.55
2019-03-16T08:10:27.127Z,100017.15
2019-03-16T08:12:52.924Z,100021.50
2019-03-16T08:15:18.700Z,100013.22
2019-03-16T08:17:44.493Z,100029.81
2019-03-16T08:20:10.470Z,100023.25
2019-03-16T08:22:36.254Z,100018.52
2019-03-16T08:25:02.044Z,100028.62
2019-03-16T08:27:27.840Z,100041.56
2019-03-16T08:29:53.620Z,100031.67
2019-03-16T08:32:19.414Z,100027.42
2019-03-16T08:34:45.195Z,100027.24
2019-03-16T08:37:10.968Z,100031.20
2019-03-16T08:39:36.758Z,100019.75
2019-03-16T08:42:02.550Z,100027.73
2019-03-16T08:44:28.362Z,100012.03
2019-03-16T08:46:54.134Z,100012.03
2019-03-16T08:49:19.934Z,100019.95
2019-03-16T08:51:45.706Z,100013.66
2019-03-16T08:54:11.503Z,100009.77
2019-03-16T08:56:37.282Z,100012.24
2019-03-16T08:59:03.071Z,100020.55
2019-03-16T09:01:28.871Z,100022.38
2019-03-16T09:03:54.661Z,100023.34
2019-03-16T09:06:20.442Z,100030.09
2019-03-16T09:08:46.228Z,100031.80
2019-03-16T09:11:12.015Z,100027.59
2019-03-16T09:13:37.828Z,100023.76
2019-03-16T09:16:03.609Z,100029.61
2019-03-16T09:18:29.401Z,100028.83
2019-03-16T09:20:55.176Z,100026.90
2019-03-16T09:23:20.976Z,100015.53
2019-03-16T09:25:46.751Z,100020.06
2019-03-16T09:28:18.720Z,100028.94
2019-03-16T09:30:40.285Z,100023.47
2019-03-16T09:33:06.125Z,100023.87
2019-03-16T09:35:31.900Z,100027.48
2019-03-16T09:37:57.676Z,100038.42
2019-03-16T09:40:23.480Z,100030.63
2019-03-16T09:42:49.251Z,100025.56
2019-03-16T09:45:15.056Z,100023.30
2019-03-16T09:47:40.869Z,100022.66
2019-03-16T09:50:07.832Z,100033.76
2019-03-16T09:52:33.620Z,100030.06
2019-03-16T09:54:59.498Z,100020.48
2019-03-16T09:57:25.280Z,100025.55
2019-03-16T09:59:51.078Z,100020.97
2019-03-16T10:02:16.872Z,100011.16
2019-03-16T10:04:42.683Z,100020.63
2019-03-16T10:07:08.463Z,100020.83
2019-03-16T10:09:34.262Z,100017.83
2019-03-16T10:12:00.065Z,100021.95
2019-03-16T10:14:25.840Z,100017.52
2019-03-16T10:16:51.630Z,100009.35
2019-03-16T10:19:17.426Z,100022.84
2019-03-16T10:21:43.211Z,100015.03
2019-03-16T10:24:09.000Z,100011.11
2019-03-16T10:26:37.432Z,100017.57
2019-03-16T10:29:02.467Z,100025.45
2019-03-16T10:31:28.253Z,100022.66
2019-03-16T10:33:54.029Z,100016.66
2019-03-16T10:36:19.812Z,100013.72
2019-03-16T10:38:45.599Z,100001.41
2019-03-16T10:41:11.388Z,100001.41
2019-03-16T10:43:37.166Z,100001.47
2019-03-16T10:46:02.955Z,99998.03
2019-03-16T10:48:28.746Z,100001.34
2019-03-16T10:50:54.533Z,99996.67
2019-03-16T10:53:20.316Z,100001.22
2019-03-16T10:55:46.207Z,100001.28
2019-03-16T10:58:11.989Z,99996.73
2019-03-16T11:00:37.772Z,99999.24
2019-03-16T11:03:03.588Z,99988.84
2019-03-16T11:05:29.373Z,99988.75
2019-03-16T11:07:55.188Z,99985.07
2019-03-16T11:10:20.975Z,99983.64
2019-03-16T11:12:46.765Z,99983.00
2019-03-16T11:15:12.934Z,99977.75
2019-03-16T11:17:38.737Z,99968.50
2019-03-16T11:20:09.082Z,99965.23
2019-03-16T11:22:34.884Z,99959.31
2019-03-16T11:25:00.669Z,99961.17
2019-03-16T11:27:26.456Z,99958.31
2019-03-16T11:29:52.237Z,99953.59
2019-03-16T11:32:18.040Z,99955.09
2019-03-16T11:34:43.822Z,99942.84
2019-03-16T11:37:09.620Z,99945.64
2019-03-16T11:39:35.391Z,99938.44
2019-03-16T11:42:01.181Z,99935.23
2019-03-16T11:44:26.955Z,99938.17
2019-03-16T11:46:52.739Z,99936.98
2019-03-16T11:49:18.540Z,99933.09
2019-03-16T11:51:44.315Z,99929.15
2019-03-16T11:54:10.101Z,99925.21
2019-03-16T11:56:35.881Z,99912.12
2019-03-16T11:59:01.664Z,99916.38
2019-03-16T12:01:27.443Z,99909.13
2019-03-16T12:03:53.231Z,99911.32
2019-03-16T12:06:19.002Z,99903.78
2019-03-16T12:08:44.792Z,99909.37
2019-03-16T12:11:10.581Z,99902.88
2019-03-16T12:13:36.367Z,99894.61
2019-03-16T12:16:02.153Z,99888.61
2019-03-16T12:18:27.965Z,99893.92
2019-03-16T12:20:53.725Z,99884.48
2019-03-16T12:23:19.514Z,99878.19
2019-03-16T12:25:45.301Z,99870.80
2019-03-16T12:28:11.115Z,99867.08
2019-03-16T12:30:36.895Z,99867.08
2019-03-16T12:33:02.684Z,99862.73
2019-03-16T12:35:28.482Z,99862.48
2019-03-16T12:37:54.255Z,99864.08
2019-03-16T12:40:20.052Z,99863.11
2019-03-16T12:42:45.825Z,99866.53
2019-03-16T12:45:13.112Z,99856.78
2019-03-16T12:47:38.894Z,99855.69
2019-03-16T12:50:06.579Z,99844.00
2019-03-16T12:52:32.362Z,99832.13
2019-03-16T12:54:58.155Z,99835.28
2019-03-16T12:57:23.937Z,99830.73
2019-03-16T12:59:49.744Z,99833.03
2019-03-16T13:02:15.512Z,99828.44
2019-03-16T13:04:41.400Z,99825.00
2019-03-16T13:07:07.186Z,99814.98
2019-03-16T13:09:32.982Z,99806.17
2019-03-16T13:11:58.767Z,99806.99
2019-03-16T13:14:24.553Z,99810.98
2019-03-16T13:16:50.334Z,99797.97
2019-03-16T13:19:16.121Z,99800.76
2019-03-16T13:21:43.862Z,99789.48
2019-03-16T13:24:09.593Z,99784.62
2019-03-16T13:26:35.389Z,99786.05
2019-03-16T13:29:01.164Z,99771.84
2019-03-16T13:31:26.964Z,99767.33
2019-03-16T13:33:53.479Z,99766.56
2019-03-16T13:36:19.338Z,99765.56
2019-03-16T13:38:45.110Z,99766.09
2019-03-16T13:41:10.903Z,99762.57
2019-03-16T13:43:36.671Z,99734.79
2019-03-16T13:46:02.462Z,99728.63
2019-03-16T13:48:28.237Z,99732.69
2019-03-16T13:50:54.037Z,99719.06
2019-03-16T13:53:19.812Z,99702.61
2019-03-16T13:55:45.803Z,99694.95
2019-03-16T13:58:11.586Z,99693.05
2019-03-16T14:00:37.478Z,99690.41
2019-03-16T14:03:03.462Z,99682.66
2019-03-16T14:05:29.286Z,99667.35
2019-03-16T14:07:55.066Z,99644.93
2019-03-16T14:10:26.366Z,99649.84
2019-03-16T14:12:52.167Z,99622.77
2019-03-16T14:15:17.946Z,99638.13
2019-03-16T14:17:43.742Z,99656.67
2019-03-16T14:20:12.228Z,99671.72
2019-03-16T14:22:38.024Z,99663.06
2019-03-16T14:25:07.396Z,99650.37
2019-03-16T14:27:33.401Z,99667.45
2019-03-16T14:29:59.176Z,99649.04
2019-03-16T14:32:24.963Z,99645.89
2019-03-16T14:34:50.740Z,99639.27
2019-03-16T14:37:16.750Z,99633.53
2019-03-16T14:39:42.572Z,99626.45
2019-03-16T14:42:08.532Z,99624.48
2019-03-16T14:44:34.366Z,99614.24
2019-03-16T14:47:00.162Z,99602.95
2019-03-16T14:49:25.941Z,99595.56
2019-03-16T14:51:51.738Z,99585.34
2019-03-16T14:54:17.522Z,99572.48
2019-03-16T14:56:43.302Z,99575.53
2019-03-16T14:59:09.087Z,99564.19
2019-03-16T15:01:34.875Z,99564.73
2019-03-16T15:04:00.702Z,99560.92
2019-03-16T15:06:26.475Z,99554.82
2019-03-16T15:08:52.270Z,99545.35
2019-03-16T15:11:18.053Z,99539.19
2019-03-16T15:13:43.844Z,99530.67
2019-03-16T15:16:09.619Z,99535.85
2019-03-16T15:18:35.412Z,99530.43
2019-03-16T15:21:01.188Z,99523.64
2019-03-16T15:23:26.979Z,99516.55
2019-03-16T15:25:52.758Z,99507.25
2019-03-16T15:28:18.557Z,99510.20
2019-03-16T15:30:50.556Z,99504.11
2019-03-16T15:33:12.028Z,99504.57
2019-03-16T15:35:37.815Z,99498.02
2019-03-16T15:38:03.606Z,99491.19
2019-03-16T15:40:29.385Z,99482.77
2019-03-16T15:42:55.177Z,99482.37
2019-03-16T15:45:26.680Z,99481.67
2019-03-16T15:47:52.466Z,99474.16
2019-03-16T15:50:18.270Z,99470.70
2019-03-16T15:52:44.046Z,99466.16
2019-03-16T15:55:09.947Z,99460.64
2019-03-16T15:57:35.727Z,99457.80
2019-03-16T16:00:07.354Z,99454.22
2019-03-16T16:02:33.110Z,99452.67
2019-03-16T16:04:58.904Z,99426.14
2019-03-16T16:07:24.695Z,99433.56
2019-03-16T16:09:50.479Z,99429.25
2019-03-16T16:12:16.262Z,99430.28
2019-03-16T16:14:42.065Z,99412.53
2019-03-16T16:17:07.836Z,99424.92
2019-03-16T16:19:33.629Z,99430.06
2019-03-16T16:21:59.414Z,99431.94
2019-03-16T16:24:25.208Z,99430.37
2019-03-16T16:26:50.984Z,99422.31
2019-03-16T16:29:17.028Z,99420.66
2019-03-16T16:31:42.810Z,99413.75
2019-03-16T16:34:08.594Z,99417.14
2019-03-16T16:36:34.476Z,99402.28
2019-03-16T16:39:00.263Z,99399.27
2019-03-16T16:41:26.088Z,99396.14
2019-03-16T16:43:51.826Z,99387.98
2019-03-16T16:46:17.615Z,99390.87
2019-03-16T16:48:43.400Z,99379.57
2019-03-16T16:51:09.198Z,99372.33
2019-03-16T16:53:34.977Z,99377.84
2019-03-16T16:56:00.763Z,99372.75
2019-03-16T16:58:26.538Z,99365.19
2019-03-16T17:00:52.330Z,99364.42
2019-03-16T17:03:18.102Z,99363.80
2019-03-16T17:05:43.892Z,99365.11
2019-03-16T17:08:09.667Z,99356.20
2019-03-16T17:10:35.452Z,99362.39
2019-03-16T17:13:01.247Z,99363.58
2019-03-16T17:15:27.033Z,99360.39
2019-03-16T17:17:52.814Z,99364.80
2019-03-16T17:20:18.597Z,99363.38
2019-03-16T17:22:44.468Z,99365.61
2019-03-16T17:25:11.464Z,99363.30
2019-03-16T17:27:37.263Z,99365.57
2019-03-16T17:30:26.336Z,99361.95
2019-03-16T17:32:52.134Z,99356.27
2019-03-16T17:35:17.903Z,99363.88
2019-03-16T17:37:43.696Z,99364.53
2019-03-16T17:40:13.308Z,99356.77
2019-03-16T17:42:39.101Z,99357.69
2019-03-16T17:45:07.879Z,99356.66
2019-03-16T17:47:33.669Z,99356.04
2019-03-16T17:49:59.451Z,99353.35
2019-03-16T17:52:25.333Z,99347.28
2019-03-16T17:54:51.087Z,99350.44
2019-03-16T17:57:16.902Z,99344.75
2019-03-16T17:59:42.668Z,99347.59
2019-03-16T18:02:08.467Z,99346.33
2019-03-16T18:04:34.239Z,99341.79
2019-03-16T18:07:00.043Z,99339.48
2019-03-16T18:09:25.823Z,99335.34
2019-03-16T18:11:51.626Z,99331.30
2019-03-16T18:14:17.661Z,99331.11
2019-03-16T18:16:43.452Z,99333.88
2019-03-16T18:19:09.243Z,99333.00
2019-03-16T18:21:35.046Z,99333.00
2019-03-16T18:24:00.831Z,99330.73
2019-03-16T18:26:26.614Z,99335.80
2019-03-16T18:28:52.410Z,99333.11
2019-03-16T18:31:18.189Z,99335.27
2019-03-16T18:33:43.981Z,99335.34
2019-03-16T18:36:11.575Z,99331.61
2019-03-16T18:38:37.460Z,99340.29
2019-03-16T18:41:03.240Z,99338.03
2019-03-16T18:43:29.029Z,99335.06
2019-03-16T18:45:54.825Z,99328.92
2019-03-16T18:48:20.614Z,99324.00
2019-03-16T18:50:46.382Z,99327.12
2019-03-16T18:53:12.182Z,99333.19
2019-03-16T18:55:37.954Z,99321.02
2019-03-16T18:58:03.746Z,99329.38
2019-03-16T19:00:29.523Z,99325.50
2019-03-16T19:02:55.314Z,99326.03
2019-03-16T19:05:21.105Z,99329.77
2019-03-16T19:07:46.899Z,99333.11
2019-03-16T19:10:14.975Z,99321.47
2019-03-16T19:12:40.776Z,99317.48
2019-03-16T19:15:11.924Z,99314.75
2019-03-16T19:17:37.739Z,99311.67
2019-03-16T19:20:07.191Z,99318.94
2019-03-16T19:22:32.973Z,99312.59
2019-03-16T19:24:58.765Z,99314.44
2019-03-16T19:27:24.540Z,99309.22
2019-03-16T19:29:50.334Z,99303.36
2019-03-16T19:32:17.357Z,99303.66
2019-03-16T19:34:43.295Z,99303.84
2019-03-16T19:37:09.080Z,99312.84
2019-03-16T19:39:34.923Z,99312.64
2019-03-16T19:42:00.701Z,99316.80
2019-03-16T19:44:26.487Z,99310.51
2019-03-16T19:46:52.273Z,99309.65
2019-03-16T19:49:18.088Z,99304.77
2019-03-16T19:51:43.843Z,99310.38
2019-03-16T19:54:09.631Z,99312.03
2019-03-16T19:56:35.406Z,99302.37
2019-03-16T19:59:01.221Z,99302.44
2019-03-16T20:01:26.973Z,99310.00
2019-03-16T20:03:52.761Z,99303.28
2019-03-16T20:06:25.734Z,99293.19
2019-03-16T20:08:46.248Z,99293.19
2019-03-16T20:11:12.028Z,99287.08
2019-03-16T20:13:37.841Z,99281.98
2019-03-16T20:16:03.610Z,99284.89
2019-03-16T20:18:29.383Z,99281.09
2019-03-16T20:20:55.170Z,99277.36
2019-03-16T20:23:20.964Z,99274.80
2019-03-16T20:25:46.755Z,99276.33
2019-03-16T20:28:12.530Z,99264.23
2019-03-16T20:30:38.331Z,99265.34
2019-03-16T20:33:04.666Z,99252.94
2019-03-16T20:35:30.773Z,99263.95
2019-03-16T20:37:56.547Z,99256.92
2019-03-16T20:40:22.332Z,99251.72
2019-03-16T20:42:48.118Z,99255.22
2019-03-16T20:45:14.023Z,99254.91
2019-03-16T20:47:39.879Z,99242.08
2019-03-16T20:50:14.315Z,99231.25
2019-03-16T20:52:40.101Z,99247.76
2019-03-16T20:55:07.497Z,99230.58
2019-03-16T20:57:33.275Z,99236.94
2019-03-16T20:59:59.064Z,99221.42
2019-03-16T21:02:24.859Z,99221.86
2019-03-16T21:04:50.635Z,99232.55
2019-03-16T21:07:16.433Z,99208.41
2019-03-16T21:09:42.211Z,99221.86
2019-03-16T21:12:08.017Z,99217.89
2019-03-16T21:14:33.809Z,99219.17
2019-03-16T21:16:59.583Z,99211.50
2019-03-16T21:19:25.368Z,99211.64
2019-03-16T21:21:51.160Z,99197.08
2019-03-16T21:24:16.931Z,99207.00
2019-03-16T21:26:51.950Z,99213.15
2019-03-16T21:29:10.417Z,99195.89
2019-03-16T21:31:36.212Z,99211.27
2019-03-16T21:34:01.988Z,99215.30
2019-03-16T21:36:27.833Z,99199.48
2019-03-16T21:38:53.578Z,99189.45
2019-03-16T21:41:19.385Z,99189.45
2019-03-16T21:43:45.158Z,99197.05
2019-03-16T21:46:10.950Z,99195.80
2019-03-16T21:48:36.747Z,99191.55
2019-03-16T21:51:02.621Z,99184.74
2019-03-16T21:53:28.417Z,99188.98
2019-03-16T21:55:54.199Z,99190.79
2019-03-16T21:58:20.000Z,99187.64
2019-03-16T22:00:45.779Z,99185.85
2019-03-16T22:03:11.578Z,99171.23
2019-03-16T22:05:37.357Z,99173.61
2019-03-16T22:08:03.147Z,99165.98
2019-03-16T22:10:28.925Z,99168.28
2019-03-16T22:12:54.737Z,99159.62
2019-03-16T22:15:20.513Z,99162.91
2019-03-16T22:17:46.301Z,99154.08
2019-03-16T22:20:19.260Z,99146.55
2019-03-16T22:22:45.149Z,99137.94
2019-03-16T22:25:11.440Z,99132.61
2019-03-16T22:27:37.226Z,99135.06
2019-03-16T22:30:15.916Z,99127.81
2019-03-16T22:32:41.687Z,99132.16
2019-03-16T22:35:09.133Z,99134.55
2019-03-16T22:37:35.163Z,99124.53
2019-03-16T22:40:00.952Z,99121.98
2019-03-16T22:42:26.735Z,99123.03
2019-03-16T22:44:52.532Z,99119.14
2019-03-16T22:47:18.319Z,99123.54
2019-03-16T22:49:44.182Z,99120.34
2019-03-16T22:52:10.012Z,99122.94
2019-03-16T22:54:35.813Z,99126.77
2019-03-16T22:57:01.590Z,99118.84
2019-03-16T22:59:27.388Z,99114.36
2019-03-16T23:01:53.264Z,99109.76
2019-03-16T23:04:19.069Z,99099.11
2019-03-16T23:06:44.858Z,99097.70
2019-03-16T23:09:10.676Z,99098.45
2019-03-16T23:11:36.443Z,99104.79
2019-03-16T23:14:02.303Z,99101.34
2019-03-16T23:16:28.116Z,99095.97
2019-03-16T23:18:54.008Z,99091.98
2019-03-16T23:21:19.791Z,99092.73
2019-03-16T23:23:45.588Z,99083.91
2019-03-16T23:26:11.368Z,99079.75
2019-03-16T23:28:37.169Z,99085.65
2019-03-16T23:31:02.942Z,99079.81
2019-03-16T23:33:28.719Z,99083.20
2019-03-16T23:35:54.514Z,99081.41
2019-03-16T23:38:20.293Z,99077.31
2019-03-16T23:40:46.080Z,99070.19
2019-03-16T23:43:11.852Z,99072.88
2019-03-16T23:45:37.649Z,99069.65
2019-03-16T23:48:03.424Z,99053.03
2019-03-16T23:50:29.215Z,99065.99
2019-03-16T23:52:55.037Z,99058.31
2019-03-16T23:55:20.823Z,99055.33
2019-03-16T23:57:46.608Z,99049.73
